sensor_id;sensor_type;location;lat;lon;timestamp;pressure;altitude;pressure_sealevel;temperature;humidity
70781;BME280;72716;48.814;2.126;2024-03-08T00:01:05;99566.97;;;6.17;100.00
70781;BME280;72716;48.814;2.126;2024-03-08T00:03:32;99575.63;;;6.14;100.00
70781;BME280;72716;48.814;2.126;2024-03-08T00:05:57;99566.94;;;6.14;100.00
70781;BME280;72716;48.814;2.126;2024-03-08T00:08:23;99561.75;;;6.14;100.00
70781;BME280;72716;48.814;2.126;2024-03-08T00:10:48;99565.22;;;6.10;100.00
70781;BME280;72716;48.814;2.126;2024-03-08T00:13:14;99552.16;;;6.03;100.00
70781;BME280;72716;48.814;2.126;2024-03-08T00:15:39;99555.63;;;6.02;100.00
70781;BME280;72716;48.814;2.126;2024-03-08T00:18:06;99546.09;;;6.01;100.00
70781;BME280;72716;48.814;2.126;2024-03-08T00:20:31;99552.16;;;5.99;100.00
70781;BME280;72716;48.814;2.126;2024-03-08T00:22:57;99550.41;;;5.96;100.00
70781;BME280;72716;48.814;2.126;2024-03-08T00:25:23;99540.88;;;5.92;100.00
70781;BME280;72716;48.814;2.126;2024-03-08T00:27:48;99538.28;;;5.90;100.00
70781;BME280;72716;48.814;2.126;2024-03-08T00:30:21;99538.25;;;5.84;100.00
70781;BME280;72716;48.814;2.126;2024-03-08T00:32:48;99539.09;;;5.81;100.00
70781;BME280;72716;48.814;2.126;2024-03-08T00:35:14;99538.22;;;5.79;100.00
70781;BME280;72716;48.814;2.126;2024-03-08T00:37:39;99527.84;;;5.78;100.00
70781;BME280;72716;48.814;2.126;2024-03-08T00:40:07;99530.44;;;5.79;100.00
70781;BME280;72716;48.814;2.126;2024-03-08T00:42:34;99528.72;;;5.75;100.00
70781;BME280;72716;48.814;2.126;2024-03-08T00:44:59;99524.38;;;5.76;100.00
70781;BME280;72716;48.814;2.126;2024-03-08T00:49:50;99521.75;;;5.71;nan
70781;BME280;72716;48.814;2.126;2024-03-08T00:52:16;99516.56;;;5.68;nan
70781;BME280;72716;48.814;2.126;2024-03-08T00:54:43;99500.94;;;5.62;nan
70781;BME280;72716;48.814;2.126;2024-03-08T00:57:08;99503.53;;;5.60;nan
70781;BME280;72716;48.814;2.126;2024-03-08T00:59:34;99505.28;;;5.59;nan
70781;BME280;72716;48.814;2.126;2024-03-08T01:02:00;99496.63;;;5.59;nan
70781;BME280;72716;48.814;2.126;2024-03-08T01:04:26;99494.84;;;5.50;nan
70781;BME280;72716;48.814;2.126;2024-03-08T01:06:54;99487.06;;;5.47;nan
70781;BME280;72716;48.814;2.126;2024-03-08T01:09:22;99482.75;;;5.51;nan
70781;BME280;72716;48.814;2.126;2024-03-08T01:11:47;99473.22;;;5.48;nan
70781;BME280;72716;48.814;2.126;2024-03-08T01:14:12;99474.97;;;5.47;nan
70781;BME280;72716;48.814;2.126;2024-03-08T01:16:38;99467.19;;;5.51;nan
70781;BME280;72716;48.814;2.126;2024-03-08T01:19:03;99469.75;;;5.46;nan
70781;BME280;72716;48.814;2.126;2024-03-08T01:21:28;99461.09;;;5.44;nan
70781;BME280;72716;48.814;2.126;2024-03-08T01:23:54;99456.72;;;5.37;nan
70781;BME280;72716;48.814;2.126;2024-03-08T01:26:19;99461.91;;;5.35;nan
70781;BME280;72716;48.814;2.126;2024-03-08T01:28:44;99453.25;;;5.31;nan
70781;BME280;72716;48.814;2.126;2024-03-08T01:31:10;99454.06;;;5.24;nan
70781;BME280;72716;48.814;2.126;2024-03-08T01:33:35;99449.75;;;5.23;nan
70781;BME280;72716;48.814;2.126;2024-03-08T01:36:00;99444.56;;;5.26;nan
70781;BME280;72716;48.814;2.126;2024-03-08T01:38:26;99447.97;;;5.17;nan
70781;BME280;72716;48.814;2.126;2024-03-08T01:40:51;99439.34;;;5.17;nan
70781;BME280;72716;48.814;2.126;2024-03-08T01:43:27;99440.19;;;5.09;nan
70781;BME280;72716;48.814;2.126;2024-03-08T01:45:59;99428.06;;;5.07;nan
70781;BME280;72716;48.814;2.126;2024-03-08T01:48:25;99428.91;;;5.06;nan
70781;BME280;72716;48.814;2.126;2024-03-08T01:50:52;99426.34;;;5.07;nan
70781;BME280;72716;48.814;2.126;2024-03-08T01:53:19;99426.31;;;5.04;nan
70781;BME280;72716;48.814;2.126;2024-03-08T01:55:47;99409.88;;;4.97;nan
70781;BME280;72716;48.814;2.126;2024-03-08T01:58:13;99407.25;;;4.94;nan
70781;BME280;72716;48.814;2.126;2024-03-08T02:00:43;99408.97;;;4.94;nan
70781;BME280;72716;48.814;2.126;2024-03-08T02:03:10;99399.44;;;4.90;nan
70781;BME280;72716;48.814;2.126;2024-03-08T02:05:36;99393.38;;;4.86;nan
70781;BME280;72716;48.814;2.126;2024-03-08T02:08:04;99394.25;;;4.85;nan
70781;BME280;72716;48.814;2.126;2024-03-08T02:10:32;99388.19;;;4.86;nan
70781;BME280;72716;48.814;2.126;2024-03-08T02:12:58;99376.97;;;4.84;nan
70781;BME280;72716;48.814;2.126;2024-03-08T02:15:24;99380.41;;;4.84;nan
70781;BME280;72716;48.814;2.126;2024-03-08T02:17:49;99381.25;;;4.80;nan
70781;BME280;72716;48.814;2.126;2024-03-08T02:20:14;99376.06;;;4.80;nan
70781;BME280;72716;48.814;2.126;2024-03-08T02:22:40;99363.94;;;4.76;nan
70781;BME280;72716;48.814;2.126;2024-03-08T02:25:05;99363.94;;;4.76;nan
70781;BME280;72716;48.814;2.126;2024-03-08T02:27:32;99363.94;;;4.73;nan
70781;BME280;72716;48.814;2.126;2024-03-08T02:29:58;99363.03;;;4.63;nan
70781;BME280;72716;48.814;2.126;2024-03-08T02:32:24;99350.09;;;4.68;nan
70781;BME280;72716;48.814;2.126;2024-03-08T02:34:49;99345.69;;;4.56;nan
70781;BME280;72716;48.814;2.126;2024-03-08T02:37:16;99347.44;;;4.58;nan
70781;BME280;72716;48.814;2.126;2024-03-08T02:39:41;99337.09;;;4.61;nan
70781;BME280;72716;48.814;2.126;2024-03-08T02:42:07;99331.06;;;4.61;nan
70781;BME280;72716;48.814;2.126;2024-03-08T02:44:32;99324.09;;;4.55;nan
70781;BME280;72716;48.814;2.126;2024-03-08T02:46:59;99322.38;;;4.57;nan
70781;BME280;72716;48.814;2.126;2024-03-08T02:49:25;99318.91;;;4.57;nan
70781;BME280;72716;48.814;2.126;2024-03-08T02:51:51;99311.16;;;4.57;nan
70781;BME280;72716;48.814;2.126;2024-03-08T02:54:17;99298.19;;;4.55;nan
70781;BME280;72716;48.814;2.126;2024-03-08T02:56:42;99293.00;;;4.49;nan
70781;BME280;72716;48.814;2.126;2024-03-08T02:59:07;99280.91;;;4.49;nan
70781;BME280;72716;48.814;2.126;2024-03-08T03:01:34;99275.75;;;4.51;nan
70781;BME280;72716;48.814;2.126;2024-03-08T03:04:00;99272.22;;;4.43;nan
70781;BME280;72716;48.814;2.126;2024-03-08T03:06:25;99267.03;;;4.43;nan
70781;BME280;72716;48.814;2.126;2024-03-08T03:08:51;99263.59;;;4.41;nan
70781;BME280;72716;48.814;2.126;2024-03-08T03:11:16;99267.03;;;4.40;nan
70781;BME280;72716;48.814;2.126;2024-03-08T03:13:42;99272.19;;;4.36;nan
70781;BME280;72716;48.814;2.126;2024-03-08T03:16:17;99270.47;;;4.35;nan
70781;BME280;72716;48.814;2.126;2024-03-08T03:18:43;99273.06;;;4.37;nan
70781;BME280;72716;48.814;2.126;2024-03-08T03:21:09;99268.72;;;4.34;nan
70781;BME280;72716;48.814;2.126;2024-03-08T03:23:34;99258.38;;;4.34;nan
70781;BME280;72716;48.814;2.126;2024-03-08T03:26:00;99254.88;;;4.29;nan
70781;BME280;72716;48.814;2.126;2024-03-08T03:28:25;99253.16;;;4.25;nan
70781;BME280;72716;48.814;2.126;2024-03-08T03:30:51;99247.97;;;4.22;nan
70781;BME280;72716;48.814;2.126;2024-03-08T03:33:18;99250.56;;;4.23;nan
70781;BME280;72716;48.814;2.126;2024-03-08T03:35:43;99259.16;;;4.19;nan
70781;BME280;72716;48.814;2.126;2024-03-08T03:38:09;99253.94;;;4.16;nan
70781;BME280;72716;48.814;2.126;2024-03-08T10:58:34;98892.28;;;11.23;100.00
70781;BME280;72716;48.814;2.126;2024-03-08T11:01:00;98895.59;;;11.30;100.00
70781;BME280;72716;48.814;2.126;2024-03-08T11:06:18;98891.72;;;12.31;100.00
70781;BME280;72716;48.814;2.126;2024-03-08T11:08:47;98887.06;;;12.12;100.00
70781;BME280;72716;48.814;2.126;2024-03-08T11:13:53;98885.75;;;11.69;100.00
70781;BME280;72716;48.814;2.126;2024-03-08T11:18:53;98882.91;;;12.32;100.00
70781;BME280;72716;48.814;2.126;2024-03-08T11:21:18;98879.66;;;12.25;100.00
70781;BME280;72716;48.814;2.126;2024-03-08T11:24:02;98875.03;;;12.05;100.00
70781;BME280;72716;48.814;2.126;2024-03-08T11:26:30;98873.63;;;12.49;100.00
70781;BME280;72716;48.814;2.126;2024-03-08T11:32:23;98864.66;;;13.78;100.00
70781;BME280;72716;48.814;2.126;2024-03-08T11:34:53;98866.41;;;14.43;100.00
70781;BME280;72716;48.814;2.126;2024-03-08T11:37:20;98860.50;;;15.20;98.35
70781;BME280;72716;48.814;2.126;2024-03-08T11:39:53;98864.97;;;14.56;93.22
70781;BME280;72716;48.814;2.126;2024-03-08T11:42:24;98861.91;;;15.08;91.01
70781;BME280;72716;48.814;2.126;2024-03-08T11:44:51;98853.69;;;15.35;90.89
70781;BME280;72716;48.814;2.126;2024-03-08T11:47:17;98851.34;;;15.85;94.54
70781;BME280;72716;48.814;2.126;2024-03-08T11:49:43;98843.09;;;14.75;88.62
70781;BME280;72716;48.814;2.126;2024-03-08T11:52:14;98845.75;;;14.33;93.69
70781;BME280;72716;48.814;2.126;2024-03-08T11:54:48;98830.09;;;14.72;96.17
70781;BME280;72716;48.814;2.126;2024-03-08T11:57:20;98829.44;;;14.67;93.93
70781;BME280;72716;48.814;2.126;2024-03-08T11:59:54;98828.50;;;14.68;99.54
70781;BME280;72716;48.814;2.126;2024-03-08T12:02:20;98829.69;;;14.81;94.34
70781;BME280;72716;48.814;2.126;2024-03-08T12:04:45;98820.75;;;14.23;96.16
70781;BME280;72716;48.814;2.126;2024-03-08T12:07:11;98820.44;;;13.88;96.76
70781;BME280;72716;48.814;2.126;2024-03-08T12:09:40;98807.41;;;13.84;97.54
70781;BME280;72716;48.814;2.126;2024-03-08T12:12:07;98803.31;;;13.77;100.00
70781;BME280;72716;48.814;2.126;2024-03-08T12:14:33;98799.53;;;12.92;100.00
70781;BME280;72716;48.814;2.126;2024-03-08T12:16:59;98788.13;;;12.93;100.00
70781;BME280;72716;48.814;2.126;2024-03-08T12:19:27;98793.13;;;13.23;100.00
70781;BME280;72716;48.814;2.126;2024-03-08T12:21:54;98784.34;;;13.24;100.00
70781;BME280;72716;48.814;2.126;2024-03-08T12:24:19;98774.81;;;13.89;100.00
70781;BME280;72716;48.814;2.126;2024-03-08T12:26:46;98775.16;;;14.02;97.60
70781;BME280;72716;48.814;2.126;2024-03-08T12:31:42;98777.53;;;14.08;100.00
70781;BME280;72716;48.814;2.126;2024-03-08T12:34:08;98776.91;;;13.80;99.13
70781;BME280;72716;48.814;2.126;2024-03-08T12:36:35;98770.66;;;13.16;100.00
70781;BME280;72716;48.814;2.126;2024-03-08T12:39:01;98770.91;;;13.77;100.00
70781;BME280;72716;48.814;2.126;2024-03-08T12:41:29;98767.00;;;14.08;97.32
70781;BME280;72716;48.814;2.126;2024-03-08T12:43:54;98760.53;;;13.74;96.82
70781;BME280;72716;48.814;2.126;2024-03-08T12:46:21;98761.25;;;13.77;100.00
70781;BME280;72716;48.814;2.126;2024-03-08T12:48:47;98750.38;;;13.42;100.00
70781;BME280;72716;48.814;2.126;2024-03-08T12:51:14;98749.72;;;13.81;100.00
70781;BME280;72716;48.814;2.126;2024-03-08T12:53:41;98744.81;;;13.27;100.00
70781;BME280;72716;48.814;2.126;2024-03-08T12:56:09;98742.78;;;13.11;100.00
70781;BME280;72716;48.814;2.126;2024-03-08T12:58:36;98738.63;;;13.73;100.00
70781;BME280;72716;48.814;2.126;2024-03-08T13:01:05;98735.69;;;13.81;99.01
70781;BME280;72716;48.814;2.126;2024-03-08T13:03:33;98729.28;;;14.09;100.00
70781;BME280;72716;48.814;2.126;2024-03-08T13:05:59;98720.50;;;14.50;99.55
70781;BME280;72716;48.814;2.126;2024-03-08T13:08:25;98718.84;;;14.27;95.32
70781;BME280;72716;48.814;2.126;2024-03-08T13:10:52;98720.25;;;14.15;99.14
70781;BME280;72716;48.814;2.126;2024-03-08T13:13:19;98709.72;;;14.15;97.92
70781;BME280;72716;48.814;2.126;2024-03-08T13:15:44;98698.28;;;14.75;100.00
70781;BME280;72716;48.814;2.126;2024-03-08T13:18:10;98708.00;;;14.94;98.31
70781;BME280;72716;48.814;2.126;2024-03-08T13:20:36;98708.00;;;14.94;93.28
70781;BME280;72716;48.814;2.126;2024-03-08T13:23:04;98704.72;;;14.89;93.00
70781;BME280;72716;48.814;2.126;2024-03-08T13:25:30;98695.88;;;14.71;93.38
70781;BME280;72716;48.814;2.126;2024-03-08T13:27:56;98696.47;;;14.97;95.77
70781;BME280;72716;48.814;2.126;2024-03-08T13:30:24;98690.16;;;14.41;90.77
70781;BME280;72716;48.814;2.126;2024-03-08T13:32:54;98687.19;;;14.68;97.17
70781;BME280;72716;48.814;2.126;2024-03-08T13:35:20;98681.44;;;14.60;93.99
70781;BME280;72716;48.814;2.126;2024-03-08T13:37:51;98674.00;;;13.90;96.93
70781;BME280;72716;48.814;2.126;2024-03-08T13:40:16;98670.19;;;13.76;99.98
70781;BME280;72716;48.814;2.126;2024-03-08T13:42:47;98650.69;;;14.01;99.52
70781;BME280;72716;48.814;2.126;2024-03-08T13:45:16;98640.47;;;13.95;100.00
70781;BME280;72716;48.814;2.126;2024-03-08T13:47:47;98649.00;;;14.19;99.33
70781;BME280;72716;48.814;2.126;2024-03-08T13:50:14;98640.13;;;13.82;99.38
70781;BME280;72716;48.814;2.126;2024-03-08T13:52:46;98647.34;;;13.77;100.00
70781;BME280;72716;48.814;2.126;2024-03-08T13:55:11;98630.84;;;13.94;100.00
70781;BME280;72716;48.814;2.126;2024-03-08T13:57:37;98626.66;;;13.90;100.00
70781;BME280;72716;48.814;2.126;2024-03-08T14:00:03;98628.44;;;13.89;100.00
70781;BME280;72716;48.814;2.126;2024-03-08T14:02:29;98624.03;;;13.90;100.00
70781;BME280;72716;48.814;2.126;2024-03-08T14:04:56;98620.03;;;13.60;100.00
70781;BME280;72716;48.814;2.126;2024-03-08T14:07:22;98609.59;;;13.79;100.00
70781;BME280;72716;48.814;2.126;2024-03-08T14:09:49;98609.09;;;13.90;100.00
70781;BME280;72716;48.814;2.126;2024-03-08T14:12:14;98616.94;;;13.71;100.00
70781;BME280;72716;48.814;2.126;2024-03-08T14:14:41;98613.13;;;13.57;100.00
70781;BME280;72716;48.814;2.126;2024-03-08T14:17:07;98610.63;;;13.54;100.00
70781;BME280;72716;48.814;2.126;2024-03-08T14:19:35;98609.91;;;13.71;100.00
70781;BME280;72716;48.814;2.126;2024-03-08T14:22:00;98607.53;;;13.65;100.00
70781;BME280;72716;48.814;2.126;2024-03-08T14:24:29;98600.03;;;13.77;100.00
70781;BME280;72716;48.814;2.126;2024-03-08T14:26:55;98590.25;;;13.59;100.00
70781;BME280;72716;48.814;2.126;2024-03-08T14:29:20;98593.38;;;13.89;98.92
70781;BME280;72716;48.814;2.126;2024-03-08T14:31:45;98588.19;;;14.27;99.28
70781;BME280;72716;48.814;2.126;2024-03-08T14:34:11;98588.66;;;14.36;95.79
70781;BME280;72716;48.814;2.126;2024-03-08T14:36:36;98594.50;;;14.81;94.68
70781;BME280;72716;48.814;2.126;2024-03-08T14:39:03;98599.28;;;14.53;90.47
70781;BME280;72716;48.814;2.126;2024-03-08T14:41:28;98609.16;;;14.29;92.73
70781;BME280;72716;48.814;2.126;2024-03-08T14:43:55;98602.16;;;14.08;92.38
70781;BME280;72716;48.814;2.126;2024-03-08T14:46:22;98604.94;;;14.25;93.51
70781;BME280;72716;48.814;2.126;2024-03-08T14:48:57;98591.28;;;14.36;95.24
70781;BME280;72716;48.814;2.126;2024-03-08T14:51:23;98597.25;;;14.20;91.26
70781;BME280;72716;48.814;2.126;2024-03-08T14:53:54;98589.94;;;14.46;90.31
70781;BME280;72716;48.814;2.126;2024-03-08T14:56:21;98590.88;;;14.45;90.42
70781;BME280;72716;48.814;2.126;2024-03-08T14:58:46;98592.19;;;14.73;92.92
70781;BME280;72716;48.814;2.126;2024-03-08T15:01:15;98595.13;;;15.04;86.58
70781;BME280;72716;48.814;2.126;2024-03-08T15:03:40;98577.63;;;15.03;85.79
70781;BME280;72716;48.814;2.126;2024-03-08T15:06:06;98581.13;;;15.03;86.77
70781;BME280;72716;48.814;2.126;2024-03-08T15:08:34;98565.69;;;14.96;88.05
70781;BME280;72716;48.814;2.126;2024-03-08T15:11:00;98556.78;;;15.16;86.67
70781;BME280;72716;48.814;2.126;2024-03-08T15:13:25;98554.69;;;15.40;85.38
70781;BME280;72716;48.814;2.126;2024-03-08T15:15:59;98537.69;;;15.12;83.45
70781;BME280;72716;48.814;2.126;2024-03-08T15:18:25;98545.72;;;15.27;85.24
70781;BME280;72716;48.814;2.126;2024-03-08T15:20:52;98541.28;;;14.92;89.29
70781;BME280;72716;48.814;2.126;2024-03-08T15:23:18;98531.34;;;15.50;87.29
70781;BME280;72716;48.814;2.126;2024-03-08T15:25:44;98537.72;;;15.64;86.30
70781;BME280;72716;48.814;2.126;2024-03-08T15:28:16;98536.94;;;15.26;86.25
70781;BME280;72716;48.814;2.126;2024-03-08T15:30:45;98539.91;;;15.02;87.70
70781;BME280;72716;48.814;2.126;2024-03-08T15:33:12;98542.00;;;15.13;86.24
70781;BME280;72716;48.814;2.126;2024-03-08T15:35:41;98528.13;;;15.27;85.09
70781;BME280;72716;48.814;2.126;2024-03-08T15:38:06;98533.69;;;14.86;88.96
70781;BME280;72716;48.814;2.126;2024-03-08T15:40:31;98528.44;;;15.21;87.46
70781;BME280;72716;48.814;2.126;2024-03-08T15:43:00;98540.47;;;14.72;88.19
70781;BME280;72716;48.814;2.126;2024-03-08T15:45:26;98532.75;;;14.87;90.09
70781;BME280;72716;48.814;2.126;2024-03-08T15:47:57;98529.28;;;15.04;85.41
70781;BME280;72716;48.814;2.126;2024-03-08T15:50:23;98529.22;;;15.23;86.20
70781;BME280;72716;48.814;2.126;2024-03-08T15:52:49;98526.59;;;14.68;88.25
70781;BME280;72716;48.814;2.126;2024-03-08T15:55:24;98528.47;;;15.03;87.78
70781;BME280;72716;48.814;2.126;2024-03-08T15:57:50;98517.69;;;14.71;87.20
70781;BME280;72716;48.814;2.126;2024-03-08T16:00:17;98515.28;;;14.86;89.09
70781;BME280;72716;48.814;2.126;2024-03-08T16:03:05;98520.06;;;15.31;89.63
70781;BME280;72716;48.814;2.126;2024-03-08T16:05:36;98517.44;;;15.13;86.36
70781;BME280;72716;48.814;2.126;2024-03-08T16:08:02;98521.09;;;14.73;88.73
70781;BME280;72716;48.814;2.126;2024-03-08T16:10:27;98510.41;;;14.59;90.24
70781;BME280;72716;48.814;2.126;2024-03-08T16:12:57;98507.41;;;14.29;89.67
70781;BME280;72716;48.814;2.126;2024-03-08T16:15:22;98503.56;;;14.17;96.58
70781;BME280;72716;48.814;2.126;2024-03-08T16:17:48;98514.50;;;13.89;92.88
70781;BME280;72716;48.814;2.126;2024-03-08T16:20:17;98503.88;;;13.92;95.56
70781;BME280;72716;48.814;2.126;2024-03-08T16:22:46;98508.53;;;13.66;94.28
70781;BME280;72716;48.814;2.126;2024-03-08T16:25:17;98506.56;;;13.29;97.23
70781;BME280;72716;48.814;2.126;2024-03-08T16:27:45;98505.53;;;13.13;100.00
70781;BME280;72716;48.814;2.126;2024-03-08T16:30:12;98513.41;;;12.92;99.55
70781;BME280;72716;48.814;2.126;2024-03-08T16:32:44;98511.00;;;12.85;100.00
70781;BME280;72716;48.814;2.126;2024-03-08T16:35:11;98513.56;;;12.87;100.00
70781;BME280;72716;48.814;2.126;2024-03-08T16:37:38;98512.44;;;12.72;100.00
70781;BME280;72716;48.814;2.126;2024-03-08T16:40:05;98509.81;;;12.72;100.00
70781;BME280;72716;48.814;2.126;2024-03-08T16:42:31;98495.06;;;12.69;100.00
70781;BME280;72716;48.814;2.126;2024-03-08T16:44:56;98502.56;;;12.56;100.00
70781;BME280;72716;48.814;2.126;2024-03-08T16:47:22;98502.00;;;12.70;100.00
70781;BME280;72716;48.814;2.126;2024-03-08T16:49:51;98495.34;;;12.61;100.00
70781;BME280;72716;48.814;2.126;2024-03-08T16:52:16;98485.25;;;12.52;100.00
70781;BME280;72716;48.814;2.126;2024-03-08T16:54:42;98488.63;;;12.56;100.00
70781;BME280;72716;48.814;2.126;2024-03-08T16:57:08;98489.38;;;12.35;100.00
70781;BME280;72716;48.814;2.126;2024-03-08T16:59:38;98490.31;;;12.34;100.00
70781;BME280;72716;48.814;2.126;2024-03-08T17:02:04;98478.81;;;12.38;100.00
70781;BME280;72716;48.814;2.126;2024-03-08T17:04:30;98474.25;;;12.42;100.00
70781;BME280;72716;48.814;2.126;2024-03-08T17:06:56;98480.50;;;12.40;100.00
70781;BME280;72716;48.814;2.126;2024-03-08T17:09:24;98472.22;;;12.28;100.00
70781;BME280;72716;48.814;2.126;2024-03-08T17:11:52;98465.00;;;12.33;100.00
70781;BME280;72716;48.814;2.126;2024-03-08T17:14:18;98468.47;;;12.34;100.00
70781;BME280;72716;48.814;2.126;2024-03-08T17:16:44;98468.19;;;12.42;100.00
70781;BME280;72716;48.814;2.126;2024-03-08T17:19:09;98469.34;;;12.34;100.00
70781;BME280;72716;48.814;2.126;2024-03-08T17:21:34;98466.09;;;12.28;100.00
70781;BME280;72716;48.814;2.126;2024-03-08T17:24:00;98461.75;;;12.26;100.00
70781;BME280;72716;48.814;2.126;2024-03-08T17:26:26;98464.69;;;12.19;100.00
70781;BME280;72716;48.814;2.126;2024-03-08T17:28:53;98466.47;;;12.18;100.00
70781;BME280;72716;48.814;2.126;2024-03-08T17:31:18;98461.47;;;12.12;100.00
70781;BME280;72716;48.814;2.126;2024-03-08T17:33:46;98457.81;;;12.16;100.00
70781;BME280;72716;48.814;2.126;2024-03-08T17:36:12;98457.81;;;12.16;100.00
70781;BME280;72716;48.814;2.126;2024-03-08T17:38:41;98457.19;;;12.09;100.00
70781;BME280;72716;48.814;2.126;2024-03-08T17:41:11;98451.94;;;12.09;100.00
70781;BME280;72716;48.814;2.126;2024-03-08T17:43:42;98453.97;;;12.01;100.00
70781;BME280;72716;48.814;2.126;2024-03-08T17:46:07;98446.25;;;11.98;100.00
70781;BME280;72716;48.814;2.126;2024-03-08T17:48:33;98453.22;;;11.99;100.00
70781;BME280;72716;48.814;2.126;2024-03-08T17:50:59;98442.03;;;11.94;100.00
70781;BME280;72716;48.814;2.126;2024-03-08T17:53:26;98451.47;;;11.98;100.00
70781;BME280;72716;48.814;2.126;2024-03-08T17:55:52;98440.75;;;12.04;100.00
70781;BME280;72716;48.814;2.126;2024-03-08T17:58:19;98437.09;;;12.08;100.00
70781;BME280;72716;48.814;2.126;2024-03-08T18:00:44;98440.19;;;11.96;100.00
70781;BME280;72716;48.814;2.126;2024-03-08T18:03:11;98438.63;;;11.92;100.00
70781;BME280;72716;48.814;2.126;2024-03-08T18:05:38;98444.09;;;11.85;100.00
70781;BME280;72716;48.814;2.126;2024-03-08T18:08:06;98440.69;;;11.83;100.00
70781;BME280;72716;48.814;2.126;2024-03-08T18:10:33;98433.97;;;11.76;100.00
70781;BME280;72716;48.814;2.126;2024-03-08T18:13:00;98429.81;;;11.70;100.00
70781;BME280;72716;48.814;2.126;2024-03-08T18:15:37;98442.09;;;11.68;100.00
70781;BME280;72716;48.814;2.126;2024-03-08T18:18:04;98440.81;;;11.56;100.00
70781;BME280;72716;48.814;2.126;2024-03-08T18:20:33;98441.53;;;11.60;100.00
70781;BME280;72716;48.814;2.126;2024-03-08T18:23:02;98435.50;;;11.58;100.00
70781;BME280;72716;48.814;2.126;2024-03-08T18:25:32;98437.53;;;11.73;100.00
70781;BME280;72716;48.814;2.126;2024-03-08T18:28:00;98435.78;;;11.74;100.00
70781;BME280;72716;48.814;2.126;2024-03-08T18:30:27;98428.44;;;11.60;100.00
70781;BME280;72716;48.814;2.126;2024-03-08T18:32:53;98429.59;;;11.52;100.00
70781;BME280;72716;48.814;2.126;2024-03-08T18:35:19;98428.00;;;11.48;100.00
70781;BME280;72716;48.814;2.126;2024-03-08T18:37:48;98434.00;;;11.52;100.00
70781;BME280;72716;48.814;2.126;2024-03-08T18:40:16;98441.09;;;11.48;100.00
70781;BME280;72716;48.814;2.126;2024-03-08T18:42:43;98435.25;;;11.41;100.00
70781;BME280;72716;48.814;2.126;2024-03-08T18:45:13;98443.78;;;11.47;100.00
70781;BME280;72716;48.814;2.126;2024-03-08T18:47:41;98442.78;;;11.49;100.00
70781;BME280;72716;48.814;2.126;2024-03-08T18:50:08;98436.81;;;11.46;100.00
70781;BME280;72716;48.814;2.126;2024-03-08T18:52:34;98443.84;;;11.45;100.00
70781;BME280;72716;48.814;2.126;2024-03-08T18:55:01;98445.59;;;11.45;100.00
70781;BME280;72716;48.814;2.126;2024-03-08T18:57:27;98443.09;;;11.41;100.00
70781;BME280;72716;48.814;2.126;2024-03-08T18:59:52;98452.66;;;11.43;100.00
70781;BME280;72716;48.814;2.126;2024-03-08T19:02:18;98451.16;;;11.35;100.00
70781;BME280;72716;48.814;2.126;2024-03-08T19:04:47;98454.69;;;11.34;100.00
70781;BME280;72716;48.814;2.126;2024-03-08T19:07:13;98436.91;;;11.19;100.00
70781;BME280;72716;48.814;2.126;2024-03-08T19:09:39;98441.25;;;11.20;100.00
70781;BME280;72716;48.814;2.126;2024-03-08T19:12:10;98446.69;;;11.13;100.00
70781;BME280;72716;48.814;2.126;2024-03-08T19:14:38;98447.03;;;11.04;100.00
70781;BME280;72716;48.814;2.126;2024-03-08T19:17:04;98450.66;;;11.00;100.00
70781;BME280;72716;48.814;2.126;2024-03-08T19:19:37;98449.03;;;10.96;100.00
70781;BME280;72716;48.814;2.126;2024-03-08T19:22:03;98449.97;;;10.95;100.00
70781;BME280;72716;48.814;2.126;2024-03-08T19:24:31;98448.50;;;10.86;100.00
70781;BME280;72716;48.814;2.126;2024-03-08T19:27:00;98442.53;;;10.82;100.00
70781;BME280;72716;48.814;2.126;2024-03-08T19:29:26;98449.59;;;10.80;100.00
70781;BME280;72716;48.814;2.126;2024-03-08T19:31:52;98444.38;;;10.80;100.00
70781;BME280;72716;48.814;2.126;2024-03-08T19:34:17;98432.28;;;10.76;100.00
70781;BME280;72716;48.814;2.126;2024-03-08T19:36:43;98447.97;;;10.76;100.00
70781;BME280;72716;48.814;2.126;2024-03-08T19:39:13;98437.50;;;10.76;100.00
70781;BME280;72716;48.814;2.126;2024-03-08T19:41:38;98431.69;;;10.67;100.00
70781;BME280;72716;48.814;2.126;2024-03-08T19:44:04;98436.94;;;10.67;100.00
70781;BME280;72716;48.814;2.126;2024-03-08T19:46:32;98427.47;;;10.63;100.00
70781;BME280;72716;48.814;2.126;2024-03-08T19:49:05;98433.66;;;10.61;100.00
70781;BME280;72716;48.814;2.126;2024-03-08T19:51:31;98444.19;;;10.59;100.00
70781;BME280;72716;48.814;2.126;2024-03-08T19:53:58;98434.81;;;10.52;100.00
70781;BME280;72716;48.814;2.126;2024-03-08T19:56:23;98440.16;;;10.49;100.00
70781;BME280;72716;48.814;2.126;2024-03-08T19:58:49;98441.13;;;10.44;100.00
70781;BME280;72716;48.814;2.126;2024-03-08T20:01:14;98435.06;;;10.42;100.00
70781;BME280;72716;48.814;2.126;2024-03-08T20:03:40;98436.22;;;10.35;100.00
70781;BME280;72716;48.814;2.126;2024-03-08T20:06:05;98433.59;;;10.35;100.00
70781;BME280;72716;48.814;2.126;2024-03-08T20:08:31;98435.56;;;10.27;100.00
70781;BME280;72716;48.814;2.126;2024-03-08T20:10:57;98434.75;;;10.26;100.00
70781;BME280;72716;48.814;2.126;2024-03-08T20:13:27;98432.19;;;10.25;100.00
70781;BME280;72716;48.814;2.126;2024-03-08T20:15:53;98424.56;;;10.17;100.00
70781;BME280;72716;48.814;2.126;2024-03-08T20:18:18;98428.84;;;10.19;100.00
70781;BME280;72716;48.814;2.126;2024-03-08T20:20:45;98433.38;;;10.14;100.00
70781;BME280;72716;48.814;2.126;2024-03-08T20:23:13;98425.59;;;10.11;100.00
70781;BME280;72716;48.814;2.126;2024-03-08T20:25:39;98436.97;;;10.10;100.00
70781;BME280;72716;48.814;2.126;2024-03-08T20:28:10;98435.28;;;10.09;100.00
70781;BME280;72716;48.814;2.126;2024-03-08T20:30:35;98424.91;;;10.06;100.00
70781;BME280;72716;48.814;2.126;2024-03-08T20:33:01;98415.72;;;9.92;100.00
70781;BME280;72716;48.814;2.126;2024-03-08T20:35:30;98422.69;;;9.93;100.00